sensor_id;sensor_type;location;lat;lon;timestamp;temperature;humidity
15713;DHT22;7957;51.608;6.916;2022-08-01T00:02:15;20.70;75.10
15713;DHT22;7957;51.608;6.916;2022-08-01T00:04:42;20.70;87.70
15713;DHT22;7957;51.608;6.916;2022-08-01T00:07:11;20.70;99.90
15713;DHT22;7957;51.608;6.916;2022-08-01T00:09:38;20.70;99.90
15713;DHT22;7957;51.608;6.916;2022-08-01T00:12:05;20.70;99.90
15713;DHT22;7957;51.608;6.916;2022-08-01T00:14:32;20.60;99.90
15713;DHT22;7957;51.608;6.916;2022-08-01T00:17:00;20.60;99.90
15713;DHT22;7957;51.608;6.916;2022-08-01T00:19:27;20.60;99.90
15713;DHT22;7957;51.608;6.916;2022-08-01T00:21:54;20.60;99.90
15713;DHT22;7957;51.608;6.916;2022-08-01T00:24:22;20.60;99.90
15713;DHT22;7957;51.608;6.916;2022-08-01T00:26:49;20.60;99.90
15713;DHT22;7957;51.608;6.916;2022-08-01T00:29:16;20.60;99.90
15713;DHT22;7957;51.608;6.916;2022-08-01T00:31:44;20.60;99.90
15713;DHT22;7957;51.608;6.916;2022-08-01T00:34:10;20.50;99.90
15713;DHT22;7957;51.608;6.916;2022-08-01T00:36:37;20.60;99.90
15713;DHT22;7957;51.608;6.916;2022-08-01T00:39:04;20.60;99.90
15713;DHT22;7957;51.608;6.916;2022-08-01T00:41:32;20.60;99.90
15713;DHT22;7957;51.608;6.916;2022-08-01T00:44:03;20.50;99.90
15713;DHT22;7957;51.608;6.916;2022-08-01T00:46:30;20.50;99.90
15713;DHT22;7957;51.608;6.916;2022-08-01T00:48:57;20.60;99.90
15713;DHT22;7957;51.608;6.916;2022-08-01T00:51:24;20.60;99.90
15713;DHT22;7957;51.608;6.916;2022-08-01T00:53:52;20.60;99.90
15713;DHT22;7957;51.608;6.916;2022-08-01T00:56:19;20.60;99.90
15713;DHT22;7957;51.608;6.916;2022-08-01T00:58:49;20.50;99.90
15713;DHT22;7957;51.608;6.916;2022-08-01T01:01:16;20.50;99.90
15713;DHT22;7957;51.608;6.916;2022-08-01T01:03:43;20.50;99.90
15713;DHT22;7957;51.608;6.916;2022-08-01T01:06:19;20.50;99.90
15713;DHT22;7957;51.608;6.916;2022-08-01T01:08:58;20.50;99.90
15713;DHT22;7957;51.608;6.916;2022-08-01T01:11:33;20.50;99.90
15713;DHT22;7957;51.608;6.916;2022-08-01T01:14:07;20.50;99.90
15713;DHT22;7957;51.608;6.916;2022-08-01T01:16:37;20.50;99.90
15713;DHT22;7957;51.608;6.916;2022-08-01T01:19:10;20.50;99.90
15713;DHT22;7957;51.608;6.916;2022-08-01T01:21:58;20.50;99.90
15713;DHT22;7957;51.608;6.916;2022-08-01T01:24:37;20.50;99.90
15713;DHT22;7957;51.608;6.916;2022-08-01T01:27:13;20.50;99.90
15713;DHT22;7957;51.608;6.916;2022-08-01T01:29:49;20.50;99.90
15713;DHT22;7957;51.608;6.916;2022-08-01T01:32:19;20.50;99.90
15713;DHT22;7957;51.608;6.916;2022-08-01T01:34:50;20.50;99.90
15713;DHT22;7957;51.608;6.916;2022-08-01T01:37:21;20.50;99.90
15713;DHT22;7957;51.608;6.916;2022-08-01T01:39:50;20.40;99.90
15713;DHT22;7957;51.608;6.916;2022-08-01T01:42:19;20.40;99.90
15713;DHT22;7957;51.608;6.916;2022-08-01T01:44:47;20.40;99.90
15713;DHT22;7957;51.608;6.916;2022-08-01T01:47:17;20.40;99.90
15713;DHT22;7957;51.608;6.916;2022-08-01T01:49:45;20.40;99.90
15713;DHT22;7957;51.608;6.916;2022-08-01T01:52:16;20.40;99.90
15713;DHT22;7957;51.608;6.916;2022-08-01T01:54:48;20.40;99.90
15713;DHT22;7957;51.608;6.916;2022-08-01T01:57:17;20.40;99.90
15713;DHT22;7957;51.608;6.916;2022-08-01T01:59:47;20.40;99.90
15713;DHT22;7957;51.608;6.916;2022-08-01T02:02:17;20.40;99.90
15713;DHT22;7957;51.608;6.916;2022-08-01T02:04:46;20.40;99.90
15713;DHT22;7957;51.608;6.916;2022-08-01T02:07:17;20.40;99.90
15713;DHT22;7957;51.608;6.916;2022-08-01T02:09:46;20.40;99.90
15713;DHT22;7957;51.608;6.916;2022-08-01T02:12:14;20.40;99.90
15713;DHT22;7957;51.608;6.916;2022-08-01T02:14:43;20.40;99.90
15713;DHT22;7957;51.608;6.916;2022-08-01T02:17:16;20.30;99.90
15713;DHT22;7957;51.608;6.916;2022-08-01T02:19:44;20.40;99.90
15713;DHT22;7957;51.608;6.916;2022-08-01T02:22:15;20.40;1.00
15713;DHT22;7957;51.608;6.916;2022-08-01T02:24:55;20.30;1.00
15713;DHT22;7957;51.608;6.916;2022-08-01T02:27:28;20.30;1.00
15713;DHT22;7957;51.608;6.916;2022-08-01T02:29:59;20.30;1.00
15713;DHT22;7957;51.608;6.916;2022-08-01T02:32:36;20.30;99.90
15713;DHT22;7957;51.608;6.916;2022-08-01T02:35:04;20.30;99.90
15713;DHT22;7957;51.608;6.916;2022-08-01T02:37:34;20.30;1.00
15713;DHT22;7957;51.608;6.916;2022-08-01T02:40:04;20.30;1.00
15713;DHT22;7957;51.608;6.916;2022-08-01T02:42:34;20.30;1.00
15713;DHT22;7957;51.608;6.916;2022-08-01T02:45:03;20.30;1.00
15713;DHT22;7957;51.608;6.916;2022-08-01T02:47:33;20.30;1.00
15713;DHT22;7957;51.608;6.916;2022-08-01T02:50:00;20.20;99.90
15713;DHT22;7957;51.608;6.916;2022-08-01T02:52:28;20.30;99.90
15713;DHT22;7957;51.608;6.916;2022-08-01T02:54:58;20.30;99.90
15713;DHT22;7957;51.608;6.916;2022-08-01T02:57:26;20.30;99.90
15713;DHT22;7957;51.608;6.916;2022-08-01T02:59:54;20.20;99.90
15713;DHT22;7957;51.608;6.916;2022-08-01T03:02:23;20.20;99.90
15713;DHT22;7957;51.608;6.916;2022-08-01T03:04:52;20.20;99.90
15713;DHT22;7957;51.608;6.916;2022-08-01T03:07:20;20.20;99.90
15713;DHT22;7957;51.608;6.916;2022-08-01T03:09:49;20.20;99.90
15713;DHT22;7957;51.608;6.916;2022-08-01T03:12:19;20.20;99.90
15713;DHT22;7957;51.608;6.916;2022-08-01T03:14:48;20.20;99.90
15713;DHT22;7957;51.608;6.916;2022-08-01T03:17:18;20.20;99.90
15713;DHT22;7957;51.608;6.916;2022-08-01T03:19:48;20.20;99.90
15713;DHT22;7957;51.608;6.916;2022-08-01T03:22:18;20.20;99.90
15713;DHT22;7957;51.608;6.916;2022-08-01T03:24:49;20.20;99.90
15713;DHT22;7957;51.608;6.916;2022-08-01T03:27:19;20.20;99.90
15713;DHT22;7957;51.608;6.916;2022-08-01T03:29:48;20.20;99.90
15713;DHT22;7957;51.608;6.916;2022-08-01T03:32:16;20.20;99.90
15713;DHT22;7957;51.608;6.916;2022-08-01T03:34:45;20.20;99.90
15713;DHT22;7957;51.608;6.916;2022-08-01T03:37:16;20.20;99.90
15713;DHT22;7957;51.608;6.916;2022-08-01T03:39:52;20.20;99.90
15713;DHT22;7957;51.608;6.916;2022-08-01T03:42:24;20.20;99.90
15713;DHT22;7957;51.608;6.916;2022-08-01T03:44:57;20.10;99.90
15713;DHT22;7957;51.608;6.916;2022-08-01T03:47:29;20.10;99.90
15713;DHT22;7957;51.608;6.916;2022-08-01T03:49:57;20.10;99.90
15713;DHT22;7957;51.608;6.916;2022-08-01T03:52:27;20.10;99.90
15713;DHT22;7957;51.608;6.916;2022-08-01T03:55:01;20.10;99.90
15713;DHT22;7957;51.608;6.916;2022-08-01T03:57:31;20.10;99.90
15713;DHT22;7957;51.608;6.916;2022-08-01T03:59:59;20.10;99.90
15713;DHT22;7957;51.608;6.916;2022-08-01T04:02:26;20.10;99.90
15713;DHT22;7957;51.608;6.916;2022-08-01T04:04:54;20.10;99.90
15713;DHT22;7957;51.608;6.916;2022-08-01T04:07:23;20.10;99.90
15713;DHT22;7957;51.608;6.916;2022-08-01T04:09:50;20.10;99.90
15713;DHT22;7957;51.608;6.916;2022-08-01T04:12:18;20.00;99.90
15713;DHT22;7957;51.608;6.916;2022-08-01T04:14:46;20.10;99.90
15713;DHT22;7957;51.608;6.916;2022-08-01T04:17:14;20.00;99.90
15713;DHT22;7957;51.608;6.916;2022-08-01T04:19:42;20.00;99.90
15713;DHT22;7957;51.608;6.916;2022-08-01T04:22:09;20.00;99.90
15713;DHT22;7957;51.608;6.916;2022-08-01T04:24:37;20.00;99.90
15713;DHT22;7957;51.608;6.916;2022-08-01T04:27:07;20.00;99.90
15713;DHT22;7957;51.608;6.916;2022-08-01T04:29:38;20.00;99.90
15713;DHT22;7957;51.608;6.916;2022-08-01T04:32:07;20.00;99.90
15713;DHT22;7957;51.608;6.916;2022-08-01T04:34:38;20.00;99.90
15713;DHT22;7957;51.608;6.916;2022-08-01T04:37:08;20.00;99.90
15713;DHT22;7957;51.608;6.916;2022-08-01T04:39:37;20.00;99.90
15713;DHT22;7957;51.608;6.916;2022-08-01T04:42:07;19.90;99.90
15713;DHT22;7957;51.608;6.916;2022-08-01T04:44:34;19.90;99.90
15713;DHT22;7957;51.608;6.916;2022-08-01T04:47:04;19.90;99.90
15713;DHT22;7957;51.608;6.916;2022-08-01T04:49:33;20.00;99.90
15713;DHT22;7957;51.608;6.916;2022-08-01T04:52:01;20.00;99.90
15713;DHT22;7957;51.608;6.916;2022-08-01T04:54:29;20.00;99.90
15713;DHT22;7957;51.608;6.916;2022-08-01T04:56:58;20.00;99.90
15713;DHT22;7957;51.608;6.916;2022-08-01T04:59:26;20.00;99.90
15713;DHT22;7957;51.608;6.916;2022-08-01T05:02:10;20.00;99.90
15713;DHT22;7957;51.608;6.916;2022-08-01T05:04:37;20.00;99.90
15713;DHT22;7957;51.608;6.916;2022-08-01T05:07:05;20.00;99.90
15713;DHT22;7957;51.608;6.916;2022-08-01T05:09:33;20.00;99.90
15713;DHT22;7957;51.608;6.916;2022-08-01T05:12:02;20.00;99.90
15713;DHT22;7957;51.608;6.916;2022-08-01T05:14:30;20.00;99.90
15713;DHT22;7957;51.608;6.916;2022-08-01T05:16:58;20.00;99.90
15713;DHT22;7957;51.608;6.916;2022-08-01T05:19:26;20.00;99.90
15713;DHT22;7957;51.608;6.916;2022-08-01T05:21:53;20.00;99.90
15713;DHT22;7957;51.608;6.916;2022-08-01T05:24:20;20.00;99.90
15713;DHT22;7957;51.608;6.916;2022-08-01T05:26:48;20.00;99.90
15713;DHT22;7957;51.608;6.916;2022-08-01T05:29:14;20.00;99.90
15713;DHT22;7957;51.608;6.916;2022-08-01T05:31:41;20.00;99.90
15713;DHT22;7957;51.608;6.916;2022-08-01T05:34:08;20.00;99.90
15713;DHT22;7957;51.608;6.916;2022-08-01T05:36:36;20.00;99.90
15713;DHT22;7957;51.608;6.916;2022-08-01T05:39:03;20.00;99.90
15713;DHT22;7957;51.608;6.916;2022-08-01T05:41:30;20.00;99.90
15713;DHT22;7957;51.608;6.916;2022-08-01T05:43:57;20.10;99.90
15713;DHT22;7957;51.608;6.916;2022-08-01T05:46:24;20.00;99.90
15713;DHT22;7957;51.608;6.916;2022-08-01T05:48:51;20.00;99.90
15713;DHT22;7957;51.608;6.916;2022-08-01T05:51:17;20.00;99.90
15713;DHT22;7957;51.608;6.916;2022-08-01T05:53:46;20.00;99.90
15713;DHT22;7957;51.608;6.916;2022-08-01T05:56:12;20.10;99.90
15713;DHT22;7957;51.608;6.916;2022-08-01T05:58:39;20.10;99.90
15713;DHT22;7957;51.608;6.916;2022-08-01T06:01:06;20.10;97.10
15713;DHT22;7957;51.608;6.916;2022-08-01T06:03:33;20.10;83.90
15713;DHT22;7957;51.608;6.916;2022-08-01T06:06:00;20.10;86.10
15713;DHT22;7957;51.608;6.916;2022-08-01T06:08:28;20.10;68.40
15713;DHT22;7957;51.608;6.916;2022-08-01T06:10:57;20.10;55.00
15713;DHT22;7957;51.608;6.916;2022-08-01T06:13:24;20.10;51.80
15713;DHT22;7957;51.608;6.916;2022-08-01T06:15:51;20.10;82.70
15713;DHT22;7957;51.608;6.916;2022-08-01T06:18:18;20.10;79.50
15713;DHT22;7957;51.608;6.916;2022-08-01T06:20:45;20.10;58.40
15713;DHT22;7957;51.608;6.916;2022-08-01T06:23:13;20.10;51.20
15713;DHT22;7957;51.608;6.916;2022-08-01T06:25:41;20.20;54.70
15713;DHT22;7957;51.608;6.916;2022-08-01T06:28:09;20.20;64.30
15713;DHT22;7957;51.608;6.916;2022-08-01T06:30:36;20.20;56.30
15713;DHT22;7957;51.608;6.916;2022-08-01T06:33:03;20.20;42.50
15713;DHT22;7957;51.608;6.916;2022-08-01T06:35:30;20.20;92.00
15713;DHT22;7957;51.608;6.916;2022-08-01T06:37:58;20.20;88.40
15713;DHT22;7957;51.608;6.916;2022-08-01T06:40:25;20.20;99.90
15713;DHT22;7957;51.608;6.916;2022-08-01T06:42:52;20.30;99.90
15713;DHT22;7957;51.608;6.916;2022-08-01T06:45:21;20.30;99.90
15713;DHT22;7957;51.608;6.916;2022-08-01T06:47:50;20.30;99.90
15713;DHT22;7957;51.608;6.916;2022-08-01T06:50:17;20.30;99.90
15713;DHT22;7957;51.608;6.916;2022-08-01T06:52:44;20.30;99.90
15713;DHT22;7957;51.608;6.916;2022-08-01T06:55:11;20.30;99.90
15713;DHT22;7957;51.608;6.916;2022-08-01T06:57:45;20.30;99.90
15713;DHT22;7957;51.608;6.916;2022-08-01T07:00:13;20.30;99.90
15713;DHT22;7957;51.608;6.916;2022-08-01T07:02:43;20.30;99.90
15713;DHT22;7957;51.608;6.916;2022-08-01T07:05:09;20.30;99.90
15713;DHT22;7957;51.608;6.916;2022-08-01T07:07:37;20.40;99.90
15713;DHT22;7957;51.608;6.916;2022-08-01T07:10:05;20.40;99.90
15713;DHT22;7957;51.608;6.916;2022-08-01T07:12:33;20.50;99.90
15713;DHT22;7957;51.608;6.916;2022-08-01T07:15:02;20.50;99.90
15713;DHT22;7957;51.608;6.916;2022-08-01T07:17:29;20.50;99.90
15713;DHT22;7957;51.608;6.916;2022-08-01T07:19:57;20.60;99.90
15713;DHT22;7957;51.608;6.916;2022-08-01T07:22:24;20.60;99.90
15713;DHT22;7957;51.608;6.916;2022-08-01T07:24:51;20.60;99.90
15713;DHT22;7957;51.608;6.916;2022-08-01T07:27:18;20.70;99.90
15713;DHT22;7957;51.608;6.916;2022-08-01T07:29:45;20.70;99.90
15713;DHT22;7957;51.608;6.916;2022-08-01T07:32:12;20.70;99.90
15713;DHT22;7957;51.608;6.916;2022-08-01T07:34:38;20.80;99.90
15713;DHT22;7957;51.608;6.916;2022-08-01T07:37:07;20.70;99.90
15713;DHT22;7957;51.608;6.916;2022-08-01T07:39:33;20.80;99.90
15713;DHT22;7957;51.608;6.916;2022-08-01T07:42:00;20.80;99.90
15713;DHT22;7957;51.608;6.916;2022-08-01T07:44:27;20.80;99.90
15713;DHT22;7957;51.608;6.916;2022-08-01T07:46:54;20.80;99.90
15713;DHT22;7957;51.608;6.916;2022-08-01T07:49:21;20.90;99.90
15713;DHT22;7957;51.608;6.916;2022-08-01T07:51:48;20.90;99.90
15713;DHT22;7957;51.608;6.916;2022-08-01T07:54:17;21.00;99.90
15713;DHT22;7957;51.608;6.916;2022-08-01T07:56:44;21.10;79.60
15713;DHT22;7957;51.608;6.916;2022-08-01T07:59:11;21.10;1.00
15713;DHT22;7957;51.608;6.916;2022-08-01T08:01:37;21.10;1.00
15713;DHT22;7957;51.608;6.916;2022-08-01T08:04:04;21.20;1.00
15713;DHT22;7957;51.608;6.916;2022-08-01T08:06:31;21.20;1.00
15713;DHT22;7957;51.608;6.916;2022-08-01T08:08:58;21.20;1.00
15713;DHT22;7957;51.608;6.916;2022-08-01T08:11:27;21.30;1.00
15713;DHT22;7957;51.608;6.916;2022-08-01T08:13:53;21.30;1.00
15713;DHT22;7957;51.608;6.916;2022-08-01T08:16:20;21.40;1.00
15713;DHT22;7957;51.608;6.916;2022-08-01T08:18:48;21.40;1.00
15713;DHT22;7957;51.608;6.916;2022-08-01T08:21:15;21.50;1.00
15713;DHT22;7957;51.608;6.916;2022-08-01T08:23:42;21.60;1.00
15713;DHT22;7957;51.608;6.916;2022-08-01T08:26:28;21.60;1.00
15713;DHT22;7957;51.608;6.916;2022-08-01T08:28:54;21.70;1.00
15713;DHT22;7957;51.608;6.916;2022-08-01T08:31:21;21.70;99.90
15713;DHT22;7957;51.608;6.916;2022-08-01T08:33:48;21.80;99.90
15713;DHT22;7957;51.608;6.916;2022-08-01T08:36:15;21.80;99.90
15713;DHT22;7957;51.608;6.916;2022-08-01T08:38:42;21.80;99.90
15713;DHT22;7957;51.608;6.916;2022-08-01T08:41:09;21.80;99.90
15713;DHT22;7957;51.608;6.916;2022-08-01T08:43:38;21.90;99.90
15713;DHT22;7957;51.608;6.916;2022-08-01T08:46:05;21.90;99.90
15713;DHT22;7957;51.608;6.916;2022-08-01T08:48:34;21.90;99.90
15713;DHT22;7957;51.608;6.916;2022-08-01T08:51:01;21.90;99.90
15713;DHT22;7957;51.608;6.916;2022-08-01T08:53:29;21.90;77.10
15713;DHT22;7957;51.608;6.916;2022-08-01T08:55:58;22.00;71.10
15713;DHT22;7957;51.608;6.916;2022-08-01T08:58:26;22.00;27.50
15713;DHT22;7957;51.608;6.916;2022-08-01T09:00:54;22.10;1.00
15713;DHT22;7957;51.608;6.916;2022-08-01T09:03:21;22.10;1.00
15713;DHT22;7957;51.608;6.916;2022-08-01T09:05:48;22.20;1.00
15713;DHT22;7957;51.608;6.916;2022-08-01T09:08:15;22.20;1.00
15713;DHT22;7957;51.608;6.916;2022-08-01T09:10:42;22.30;1.00
15713;DHT22;7957;51.608;6.916;2022-08-01T09:13:11;22.30;1.00
15713;DHT22;7957;51.608;6.916;2022-08-01T09:15:42;22.40;99.90
15713;DHT22;7957;51.608;6.916;2022-08-01T09:21:15;22.40;99.90
15713;DHT22;7957;51.608;6.916;2022-08-01T09:23:45;22.50;99.90
15713;DHT22;7957;51.608;6.916;2022-08-01T09:26:13;22.60;99.90
15713;DHT22;7957;51.608;6.916;2022-08-01T09:28:41;22.70;99.90
15713;DHT22;7957;51.608;6.916;2022-08-01T09:31:10;22.80;99.90
15713;DHT22;7957;51.608;6.916;2022-08-01T09:33:47;22.90;99.90
15713;DHT22;7957;51.608;6.916;2022-08-01T09:36:16;22.90;99.90
15713;DHT22;7957;51.608;6.916;2022-08-01T09:38:43;22.90;99.90
15713;DHT22;7957;51.608;6.916;2022-08-01T09:41:10;22.90;99.90
15713;DHT22;7957;51.608;6.916;2022-08-01T09:43:38;23.00;62.60
15713;DHT22;7957;51.608;6.916;2022-08-01T09:46:08;23.00;37.80
15713;DHT22;7957;51.608;6.916;2022-08-01T09:48:36;23.00;17.00
15713;DHT22;7957;51.608;6.916;2022-08-01T09:51:05;23.00;1.00
15713;DHT22;7957;51.608;6.916;2022-08-01T09:53:44;23.10;1.00
15713;DHT22;7957;51.608;6.916;2022-08-01T09:56:12;23.10;1.00
15713;DHT22;7957;51.608;6.916;2022-08-01T09:58:57;23.20;1.00
15713;DHT22;7957;51.608;6.916;2022-08-01T10:01:24;23.40;1.00
15713;DHT22;7957;51.608;6.916;2022-08-01T10:04:08;23.60;1.00
15713;DHT22;7957;51.608;6.916;2022-08-01T10:06:36;23.70;1.00
15713;DHT22;7957;51.608;6.916;2022-08-01T10:09:05;23.80;99.90
15713;DHT22;7957;51.608;6.916;2022-08-01T10:11:32;23.80;99.90
15713;DHT22;7957;51.608;6.916;2022-08-01T10:14:02;23.80;99.90
15713;DHT22;7957;51.608;6.916;2022-08-01T10:16:30;23.80;99.90
15713;DHT22;7957;51.608;6.916;2022-08-01T10:18:59;23.80;99.90
15713;DHT22;7957;51.608;6.916;2022-08-01T10:21:27;23.80;99.90
15713;DHT22;7957;51.608;6.916;2022-08-01T10:23:55;23.80;99.90
15713;DHT22;7957;51.608;6.916;2022-08-01T10:26:25;23.80;99.90
15713;DHT22;7957;51.608;6.916;2022-08-01T10:28:54;23.80;99.90
15713;DHT22;7957;51.608;6.916;2022-08-01T10:31:22;23.90;99.90
15713;DHT22;7957;51.608;6.916;2022-08-01T10:33:50;24.00;99.90
15713;DHT22;7957;51.608;6.916;2022-08-01T10:36:18;24.10;99.90
15713;DHT22;7957;51.608;6.916;2022-08-01T10:38:46;24.10;99.90
15713;DHT22;7957;51.608;6.916;2022-08-01T10:41:14;24.10;99.90
15713;DHT22;7957;51.608;6.916;2022-08-01T10:43:43;24.10;83.50
15713;DHT22;7957;51.608;6.916;2022-08-01T10:46:10;24.10;56.70
15713;DHT22;7957;51.608;6.916;2022-08-01T10:48:44;24.10;51.80
15713;DHT22;7957;51.608;6.916;2022-08-01T10:51:12;24.00;62.90
15713;DHT22;7957;51.608;6.916;2022-08-01T10:53:46;24.10;99.90
15713;DHT22;7957;51.608;6.916;2022-08-01T10:56:13;24.20;99.90
15713;DHT22;7957;51.608;6.916;2022-08-01T10:58:46;24.20;99.90
15713;DHT22;7957;51.608;6.916;2022-08-01T11:01:20;24.40;70.90
15713;DHT22;7957;51.608;6.916;2022-08-01T11:04:03;24.50;13.40
15713;DHT22;7957;51.608;6.916;2022-08-01T11:06:41;24.70;1.00
15713;DHT22;7957;51.608;6.916;2022-08-01T11:09:24;24.90;1.00
15713;DHT22;7957;51.608;6.916;2022-08-01T11:11:58;25.20;1.00
15713;DHT22;7957;51.608;6.916;2022-08-01T11:14:28;25.30;1.00
15713;DHT22;7957;51.608;6.916;2022-08-01T11:16:55;25.30;1.00
15713;DHT22;7957;51.608;6.916;2022-08-01T11:19:22;25.30;1.00
15713;DHT22;7957;51.608;6.916;2022-08-01T11:21:59;25.30;1.00
15713;DHT22;7957;51.608;6.916;2022-08-01T11:24:56;25.20;1.00
15713;DHT22;7957;51.608;6.916;2022-08-01T11:27:24;25.20;1.00
15713;DHT22;7957;51.608;6.916;2022-08-01T11:30:23;25.20;1.00
15713;DHT22;7957;51.608;6.916;2022-08-01T11:32:52;25.40;1.00
15713;DHT22;7957;51.608;6.916;2022-08-01T11:35:20;25.80;1.00
15713;DHT22;7957;51.608;6.916;2022-08-01T11:37:49;26.10;99.90
15713;DHT22;7957;51.608;6.916;2022-08-01T11:40:22;26.20;99.90
15713;DHT22;7957;51.608;6.916;2022-08-01T11:42:50;26.30;99.90
15713;DHT22;7957;51.608;6.916;2022-08-01T11:45:17;26.50;99.90
15713;DHT22;7957;51.608;6.916;2022-08-01T11:47:47;26.70;99.90
15713;DHT22;7957;51.608;6.916;2022-08-01T11:50:31;26.80;99.90
15713;DHT22;7957;51.608;6.916;2022-08-01T11:52:58;27.00;99.90
15713;DHT22;7957;51.608;6.916;2022-08-01T11:55:26;27.40;99.90
15713;DHT22;7957;51.608;6.916;2022-08-01T11:57:59;27.90;97.70
15713;DHT22;7957;51.608;6.916;2022-08-01T12:00:27;28.30;29.10
15713;DHT22;7957;51.608;6.916;2022-08-01T12:02:58;28.60;18.30
15713;DHT22;7957;51.608;6.916;2022-08-01T12:05:26;28.50;14.40
15713;DHT22;7957;51.608;6.916;2022-08-01T12:07:54;28.40;11.10
15713;DHT22;7957;51.608;6.916;2022-08-01T12:10:24;28.20;28.70
15713;DHT22;7957;51.608;6.916;2022-08-01T12:12:53;28.00;26.50
15713;DHT22;7957;51.608;6.916;2022-08-01T12:15:22;27.80;37.90
15713;DHT22;7957;51.608;6.916;2022-08-01T12:17:53;27.60;47.40
15713;DHT22;7957;51.608;6.916;2022-08-01T12:20:24;27.40;70.00
15713;DHT22;7957;51.608;6.916;2022-08-01T12:22:53;27.10;96.20
15713;DHT22;7957;51.608;6.916;2022-08-01T12:25:20;26.90;97.00
15713;DHT22;7957;51.608;6.916;2022-08-01T12:27:48;26.90;99.90
15713;DHT22;7957;51.608;6.916;2022-08-01T12:30:17;26.90;99.90
15713;DHT22;7957;51.608;6.916;2022-08-01T12:32:45;27.00;99.90
15713;DHT22;7957;51.608;6.916;2022-08-01T12:35:13;26.90;99.90
15713;DHT22;7957;51.608;6.916;2022-08-01T12:37:43;26.80;99.90
15713;DHT22;7957;51.608;6.916;2022-08-01T12:40:13;26.70;99.90
15713;DHT22;7957;51.608;6.916;2022-08-01T12:42:41;26.70;99.90
15713;DHT22;7957;51.608;6.916;2022-08-01T12:45:11;26.80;99.90
15713;DHT22;7957;51.608;6.916;2022-08-01T12:47:39;27.00;99.90
15713;DHT22;7957;51.608;6.916;2022-08-01T12:50:10;27.30;99.90
15713;DHT22;7957;51.608;6.916;2022-08-01T12:52:37;27.50;55.30
15713;DHT22;7957;51.608;6.916;2022-08-01T12:55:10;27.60;51.80
15713;DHT22;7957;51.608;6.916;2022-08-01T12:57:39;27.80;25.50
15713;DHT22;7957;51.608;6.916;2022-08-01T13:00:12;28.00;13.20
15713;DHT22;7957;51.608;6.916;2022-08-01T13:02:40;28.10;1.00
15713;DHT22;7957;51.608;6.916;2022-08-01T13:05:08;28.20;1.00
15713;DHT22;7957;51.608;6.916;2022-08-01T13:07:40;28.20;1.00
15713;DHT22;7957;51.608;6.916;2022-08-01T13:10:10;28.20;1.00
15713;DHT22;7957;51.608;6.916;2022-08-01T13:12:38;28.10;1.00
15713;DHT22;7957;51.608;6.916;2022-08-01T13:15:23;28.20;1.00
15713;DHT22;7957;51.608;6.916;2022-08-01T13:17:51;28.10;1.00
15713;DHT22;7957;51.608;6.916;2022-08-01T13:20:30;28.00;1.00
15713;DHT22;7957;51.608;6.916;2022-08-01T13:23:14;28.00;1.00
15713;DHT22;7957;51.608;6.916;2022-08-01T13:25:54;28.00;1.00
15713;DHT22;7957;51.608;6.916;2022-08-01T13:28:22;28.10;1.00
15713;DHT22;7957;51.608;6.916;2022-08-01T13:30:54;28.20;1.00
15713;DHT22;7957;51.608;6.916;2022-08-01T13:33:21;28.30;1.00
15713;DHT22;7957;51.608;6.916;2022-08-01T13:35:50;28.40;1.00
15713;DHT22;7957;51.608;6.916;2022-08-01T13:38:17;28.40;1.00
15713;DHT22;7957;51.608;6.916;2022-08-01T13:40:43;28.40;1.00
15713;DHT22;7957;51.608;6.916;2022-08-01T13:43:12;28.40;1.00
15713;DHT22;7957;51.608;6.916;2022-08-01T13:45:40;28.40;1.00
15713;DHT22;7957;51.608;6.916;2022-08-01T13:48:07;28.40;1.00
15713;DHT22;7957;51.608;6.916;2022-08-01T13:50:33;28.40;1.00
15713;DHT22;7957;51.608;6.916;2022-08-01T13:53:01;28.40;1.00
15713;DHT22;7957;51.608;6.916;2022-08-01T13:55:28;28.40;1.00
15713;DHT22;7957;51.608;6.916;2022-08-01T13:57:55;28.30;1.00
15713;DHT22;7957;51.608;6.916;2022-08-01T14:00:23;28.20;1.00
15713;DHT22;7957;51.608;6.916;2022-08-01T14:02:50;28.20;1.00
15713;DHT22;7957;51.608;6.916;2022-08-01T14:05:17;28.10;1.00
15713;DHT22;7957;51.608;6.916;2022-08-01T14:07:44;28.10;1.00
15713;DHT22;7957;51.608;6.916;2022-08-01T14:10:11;28.10;1.00
15713;DHT22;7957;51.608;6.916;2022-08-01T14:12:38;28.10;1.00
15713;DHT22;7957;51.608;6.916;2022-08-01T14:15:06;28.10;1.00
15713;DHT22;7957;51.608;6.916;2022-08-01T14:17:34;28.10;1.00
15713;DHT22;7957;51.608;6.916;2022-08-01T14:20:01;28.10;1.00
15713;DHT22;7957;51.608;6.916;2022-08-01T14:22:29;28.00;1.00
15713;DHT22;7957;51.608;6.916;2022-08-01T14:24:56;28.00;1.00
15713;DHT22;7957;51.608;6.916;2022-08-01T14:27:24;27.90;1.00
15713;DHT22;7957;51.608;6.916;2022-08-01T14:29:51;27.80;1.00
15713;DHT22;7957;51.608;6.916;2022-08-01T14:32:18;27.60;1.00
15713;DHT22;7957;51.608;6.916;2022-08-01T14:34:46;27.50;1.00
15713;DHT22;7957;51.608;6.916;2022-08-01T14:37:13;27.50;1.00
15713;DHT22;7957;51.608;6.916;2022-08-01T14:39:39;27.40;1.00
15713;DHT22;7957;51.608;6.916;2022-08-01T14:42:06;27.20;1.00
15713;DHT22;7957;51.608;6.916;2022-08-01T14:44:33;27.10;1.00
15713;DHT22;7957;51.608;6.916;2022-08-01T14:47:00;27.00;1.00
15713;DHT22;7957;51.608;6.916;2022-08-01T14:49:27;27.00;1.00
15713;DHT22;7957;51.608;6.916;2022-08-01T14:51:55;26.90;1.00
15713;DHT22;7957;51.608;6.916;2022-08-01T14:54:22;26.80;1.00
15713;DHT22;7957;51.608;6.916;2022-08-01T14:56:49;26.80;1.00
15713;DHT22;7957;51.608;6.916;2022-08-01T14:59:18;26.70;1.00
15713;DHT22;7957;51.608;6.916;2022-08-01T15:01:45;26.70;1.00
15713;DHT22;7957;51.608;6.916;2022-08-01T15:04:12;26.60;1.00
15713;DHT22;7957;51.608;6.916;2022-08-01T15:06:39;26.50;1.00
15713;DHT22;7957;51.608;6.916;2022-08-01T15:09:08;26.50;1.00
15713;DHT22;7957;51.608;6.916;2022-08-01T15:11:35;26.50;5.60
15713;DHT22;7957;51.608;6.916;2022-08-01T15:14:02;26.40;1.00
15713;DHT22;7957;51.608;6.916;2022-08-01T15:16:47;26.40;19.40
15713;DHT22;7957;51.608;6.916;2022-08-01T15:19:14;26.40;8.40
15713;DHT22;7957;51.608;6.916;2022-08-01T15:21:41;26.40;21.80
15713;DHT22;7957;51.608;6.916;2022-08-01T15:24:09;26.40;2.90
15713;DHT22;7957;51.608;6.916;2022-08-01T15:26:36;26.30;1.00
15713;DHT22;7957;51.608;6.916;2022-08-01T15:29:03;26.40;1.00
15713;DHT22;7957;51.608;6.916;2022-08-01T15:31:30;26.40;1.00
15713;DHT22;7957;51.608;6.916;2022-08-01T15:33:57;26.40;1.00
15713;DHT22;7957;51.608;6.916;2022-08-01T15:36:24;26.40;1.00
15713;DHT22;7957;51.608;6.916;2022-08-01T15:38:51;26.40;1.00
15713;DHT22;7957;51.608;6.916;2022-08-01T15:41:19;26.40;1.00
15713;DHT22;7957;51.608;6.916;2022-08-01T15:43:46;26.40;1.00
15713;DHT22;7957;51.608;6.916;2022-08-01T15:46:13;26.40;1.00
15713;DHT22;7957;51.608;6.916;2022-08-01T15:48:40;26.40;1.00
15713;DHT22;7957;51.608;6.916;2022-08-01T15:51:07;26.40;1.00
15713;DHT22;7957;51.608;6.916;2022-08-01T15:53:33;26.40;1.00
15713;DHT22;7957;51.608;6.916;2022-08-01T15:56:00;26.50;1.00
15713;DHT22;7957;51.608;6.916;2022-08-01T15:58:28;26.50;1.00
15713;DHT22;7957;51.608;6.916;2022-08-01T16:00:55;26.50;1.00
15713;DHT22;7957;51.608;6.916;2022-08-01T16:03:22;26.50;1.00
15713;DHT22;7957;51.608;6.916;2022-08-01T16:05:49;26.50;1.00